sensor_id;sensor_type;location;lat;lon;timestamp;P1;durP1;ratioP1;P2;durP2;ratioP2
42000;SDS011;27689;48.390;10.856;2023-02-28T00:00:35;5.50;;;4.18;;
42000;SDS011;27689;48.390;10.856;2023-02-28T00:03:21;4.78;;;3.83;;
42000;SDS011;27689;48.390;10.856;2023-02-28T00:06:05;5.50;;;4.18;;
42000;SDS011;27689;48.390;10.856;2023-02-28T00:08:50;5.53;;;4.07;;
42000;SDS011;27689;48.390;10.856;2023-02-28T00:11:34;6.28;;;4.22;;
42000;SDS011;27689;48.390;10.856;2023-02-28T00:14:18;5.70;;;4.05;;
42000;SDS011;27689;48.390;10.856;2023-02-28T00:17:02;5.40;;;4.43;;
42000;SDS011;27689;48.390;10.856;2023-02-28T00:19:49;5.23;;;4.70;;
42000;SDS011;27689;48.390;10.856;2023-02-28T00:22:34;5.80;;;4.68;;
42000;SDS011;27689;48.390;10.856;2023-02-28T00:25:23;6.90;;;4.80;;
42000;SDS011;27689;48.390;10.856;2023-02-28T00:28:08;6.28;;;5.05;;
42000;SDS011;27689;48.390;10.856;2023-02-28T00:30:52;5.35;;;4.82;;
42000;SDS011;27689;48.390;10.856;2023-02-28T00:33:37;7.53;;;5.15;;
42000;SDS011;27689;48.390;10.856;2023-02-28T00:36:21;6.07;;;4.75;;
42000;SDS011;27689;48.390;10.856;2023-02-28T00:39:04;5.85;;;4.90;;
42000;SDS011;27689;48.390;10.856;2023-02-28T00:41:48;7.90;;;5.35;;
42000;SDS011;27689;48.390;10.856;2023-02-28T00:44:32;7.88;;;5.00;;
42000;SDS011;27689;48.390;10.856;2023-02-28T00:47:17;5.80;;;4.55;;
42000;SDS011;27689;48.390;10.856;2023-02-28T00:50:01;6.25;;;5.00;;
42000;SDS011;27689;48.390;10.856;2023-02-28T00:52:46;6.38;;;4.75;;
42000;SDS011;27689;48.390;10.856;2023-02-28T00:55:31;5.10;;;4.60;;
42000;SDS011;27689;48.390;10.856;2023-02-28T00:58:15;6.22;;;5.00;;
42000;SDS011;27689;48.390;10.856;2023-02-28T01:00:59;7.35;;;5.00;;
42000;SDS011;27689;48.390;10.856;2023-02-28T01:03:43;6.22;;;5.00;;
42000;SDS011;27689;48.390;10.856;2023-02-28T01:06:27;7.78;;;5.57;;
42000;SDS011;27689;48.390;10.856;2023-02-28T01:09:11;7.03;;;5.05;;
42000;SDS011;27689;48.390;10.856;2023-02-28T01:14:39;6.22;;;5.00;;
42000;SDS011;27689;48.390;10.856;2023-02-28T01:17:23;6.55;;;5.00;;
42000;SDS011;27689;48.390;10.856;2023-02-28T01:20:08;5.88;;;5.00;;
42000;SDS011;27689;48.390;10.856;2023-02-28T01:22:53;6.07;;;5.30;;
42000;SDS011;27689;48.390;10.856;2023-02-28T01:25:37;8.00;;;5.43;;
42000;SDS011;27689;48.390;10.856;2023-02-28T01:31:05;6.45;;;4.53;;
42000;SDS011;27689;48.390;10.856;2023-02-28T01:33:50;6.32;;;4.97;;
42000;SDS011;27689;48.390;10.856;2023-02-28T01:39:20;9.55;;;4.78;;
42000;SDS011;27689;48.390;10.856;2023-02-28T01:42:03;5.78;;;4.38;;
42000;SDS011;27689;48.390;10.856;2023-02-28T01:47:41;7.07;;;5.05;;
42000;SDS011;27689;48.390;10.856;2023-02-28T01:50:28;7.63;;;4.78;;
42000;SDS011;27689;48.390;10.856;2023-02-28T01:53:16;7.05;;;4.80;;
42000;SDS011;27689;48.390;10.856;2023-02-28T01:56:04;5.75;;;4.60;;
42000;SDS011;27689;48.390;10.856;2023-02-28T01:58:50;6.50;;;5.07;;
42000;SDS011;27689;48.390;10.856;2023-02-28T02:01:36;5.53;;;4.93;;
42000;SDS011;27689;48.390;10.856;2023-02-28T02:04:21;6.43;;;4.82;;
42000;SDS011;27689;48.390;10.856;2023-02-28T02:07:09;6.85;;;4.90;;
42000;SDS011;27689;48.390;10.856;2023-02-28T02:10:02;7.05;;;5.15;;
42000;SDS011;27689;48.390;10.856;2023-02-28T02:13:18;6.55;;;4.20;;
42000;SDS011;27689;48.390;10.856;2023-02-28T02:25:53;5.25;;;4.53;;
42000;SDS011;27689;48.390;10.856;2023-02-28T02:34:51;6.60;;;4.75;;
42000;SDS011;27689;48.390;10.856;2023-02-28T02:37:43;7.10;;;5.68;;
42000;SDS011;27689;48.390;10.856;2023-02-28T02:40:58;7.57;;;6.07;;
42000;SDS011;27689;48.390;10.856;2023-02-28T02:46:55;14.82;;;5.72;;
42000;SDS011;27689;48.390;10.856;2023-02-28T02:49:49;7.40;;;5.05;;
42000;SDS011;27689;48.390;10.856;2023-02-28T02:52:43;6.22;;;5.55;;
42000;SDS011;27689;48.390;10.856;2023-02-28T02:55:33;7.88;;;5.80;;
42000;SDS011;27689;48.390;10.856;2023-02-28T02:58:28;6.80;;;5.57;;
42000;SDS011;27689;48.390;10.856;2023-02-28T03:01:21;8.50;;;5.72;;
42000;SDS011;27689;48.390;10.856;2023-02-28T03:04:16;6.68;;;4.80;;
42000;SDS011;27689;48.390;10.856;2023-02-28T03:07:02;6.97;;;5.55;;
42000;SDS011;27689;48.390;10.856;2023-02-28T03:09:53;7.15;;;5.75;;
42000;SDS011;27689;48.390;10.856;2023-02-28T03:12:48;6.97;;;5.28;;
42000;SDS011;27689;48.390;10.856;2023-02-28T03:16:09;9.40;;;5.75;;
42000;SDS011;27689;48.390;10.856;2023-02-28T03:18:54;6.97;;;5.80;;
42000;SDS011;27689;48.390;10.856;2023-02-28T03:28:15;7.53;;;5.88;;
42000;SDS011;27689;48.390;10.856;2023-02-28T03:37:16;7.60;;;5.97;;
42000;SDS011;27689;48.390;10.856;2023-02-28T03:40:10;7.72;;;6.18;;
42000;SDS011;27689;48.390;10.856;2023-02-28T03:42:59;8.52;;;5.57;;
42000;SDS011;27689;48.390;10.856;2023-02-28T03:45:48;9.75;;;5.80;;
42000;SDS011;27689;48.390;10.856;2023-02-28T03:48:38;9.45;;;6.00;;
42000;SDS011;27689;48.390;10.856;2023-02-28T03:51:26;8.45;;;6.18;;
42000;SDS011;27689;48.390;10.856;2023-02-28T03:54:15;9.02;;;6.35;;
42000;SDS011;27689;48.390;10.856;2023-02-28T03:57:27;8.88;;;6.32;;
42000;SDS011;27689;48.390;10.856;2023-02-28T04:00:39;7.22;;;5.43;;
42000;SDS011;27689;48.390;10.856;2023-02-28T04:03:29;6.95;;;5.80;;
42000;SDS011;27689;48.390;10.856;2023-02-28T04:06:20;7.95;;;5.95;;
42000;SDS011;27689;48.390;10.856;2023-02-28T04:09:06;8.52;;;6.25;;
42000;SDS011;27689;48.390;10.856;2023-02-28T04:11:53;7.22;;;5.80;;
42000;SDS011;27689;48.390;10.856;2023-02-28T04:14:39;8.07;;;6.22;;
42000;SDS011;27689;48.390;10.856;2023-02-28T04:17:23;9.30;;;6.68;;
42000;SDS011;27689;48.390;10.856;2023-02-28T04:20:06;7.10;;;5.87;;
42000;SDS011;27689;48.390;10.856;2023-02-28T04:22:53;10.13;;;6.13;;
42000;SDS011;27689;48.390;10.856;2023-02-28T04:25:36;8.80;;;6.70;;
42000;SDS011;27689;48.390;10.856;2023-02-28T04:28:21;9.57;;;6.75;;
42000;SDS011;27689;48.390;10.856;2023-02-28T04:31:05;10.55;;;6.63;;
42000;SDS011;27689;48.390;10.856;2023-02-28T04:33:49;9.40;;;6.50;;
42000;SDS011;27689;48.390;10.856;2023-02-28T04:36:33;8.32;;;6.80;;
42000;SDS011;27689;48.390;10.856;2023-02-28T04:39:17;10.45;;;6.68;;
42000;SDS011;27689;48.390;10.856;2023-02-28T04:44:46;8.93;;;6.75;;
42000;SDS011;27689;48.390;10.856;2023-02-28T04:47:31;8.32;;;6.25;;
42000;SDS011;27689;48.390;10.856;2023-02-28T04:50:15;11.27;;;6.03;;
42000;SDS011;27689;48.390;10.856;2023-02-28T04:52:59;7.72;;;5.28;;
42000;SDS011;27689;48.390;10.856;2023-02-28T04:55:43;10.10;;;6.63;;
42000;SDS011;27689;48.390;10.856;2023-02-28T04:58:27;8.20;;;6.63;;
42000;SDS011;27689;48.390;10.856;2023-02-28T05:01:19;7.43;;;6.10;;
42000;SDS011;27689;48.390;10.856;2023-02-28T05:04:09;9.35;;;7.47;;
42000;SDS011;27689;48.390;10.856;2023-02-28T05:06:53;16.45;;;7.65;;
42000;SDS011;27689;48.390;10.856;2023-02-28T05:09:38;10.65;;;6.50;;
42000;SDS011;27689;48.390;10.856;2023-02-28T05:12:22;7.63;;;6.45;;
42000;SDS011;27689;48.390;10.856;2023-02-28T05:15:07;10.27;;;6.50;;
42000;SDS011;27689;48.390;10.856;2023-02-28T05:17:56;8.13;;;6.95;;
42000;SDS011;27689;48.390;10.856;2023-02-28T05:20:39;8.10;;;6.72;;
42000;SDS011;27689;48.390;10.856;2023-02-28T05:23:23;9.50;;;6.80;;
42000;SDS011;27689;48.390;10.856;2023-02-28T05:26:07;9.48;;;7.40;;
42000;SDS011;27689;48.390;10.856;2023-02-28T05:28:51;9.27;;;7.00;;
42000;SDS011;27689;48.390;10.856;2023-02-28T05:34:20;11.30;;;7.07;;
42000;SDS011;27689;48.390;10.856;2023-02-28T05:37:04;12.15;;;7.50;;
42000;SDS011;27689;48.390;10.856;2023-02-28T05:39:49;9.73;;;7.07;;
42000;SDS011;27689;48.390;10.856;2023-02-28T05:42:33;9.95;;;7.07;;
42000;SDS011;27689;48.390;10.856;2023-02-28T05:45:17;12.25;;;7.55;;
42000;SDS011;27689;48.390;10.856;2023-02-28T05:48:01;9.98;;;7.25;;
42000;SDS011;27689;48.390;10.856;2023-02-28T05:50:45;8.35;;;7.28;;
42000;SDS011;27689;48.390;10.856;2023-02-28T05:56:13;9.30;;;7.13;;
42000;SDS011;27689;48.390;10.856;2023-02-28T05:58:57;10.35;;;7.57;;
42000;SDS011;27689;48.390;10.856;2023-02-28T06:01:42;12.07;;;7.97;;
42000;SDS011;27689;48.390;10.856;2023-02-28T06:04:31;11.30;;;7.55;;
42000;SDS011;27689;48.390;10.856;2023-02-28T06:07:15;11.05;;;8.02;;
42000;SDS011;27689;48.390;10.856;2023-02-28T06:10:00;11.45;;;7.43;;
42000;SDS011;27689;48.390;10.856;2023-02-28T06:12:45;11.57;;;7.90;;
42000;SDS011;27689;48.390;10.856;2023-02-28T06:15:29;9.65;;;7.30;;
42000;SDS011;27689;48.390;10.856;2023-02-28T06:18:13;10.93;;;8.10;;
42000;SDS011;27689;48.390;10.856;2023-02-28T06:20:58;11.02;;;7.90;;
42000;SDS011;27689;48.390;10.856;2023-02-28T06:23:42;10.80;;;8.88;;
42000;SDS011;27689;48.390;10.856;2023-02-28T06:26:25;10.95;;;7.70;;
42000;SDS011;27689;48.390;10.856;2023-02-28T06:31:54;10.88;;;7.88;;
42000;SDS011;27689;48.390;10.856;2023-02-28T06:34:38;10.45;;;8.85;;
42000;SDS011;27689;48.390;10.856;2023-02-28T06:37:22;12.30;;;8.70;;
42000;SDS011;27689;48.390;10.856;2023-02-28T06:40:09;11.18;;;9.02;;
42000;SDS011;27689;48.390;10.856;2023-02-28T06:45:37;12.30;;;8.73;;
42000;SDS011;27689;48.390;10.856;2023-02-28T06:48:26;11.63;;;8.32;;
42000;SDS011;27689;48.390;10.856;2023-02-28T06:51:12;11.65;;;8.30;;
42000;SDS011;27689;48.390;10.856;2023-02-28T06:53:58;12.18;;;8.30;;
42000;SDS011;27689;48.390;10.856;2023-02-28T06:56:42;13.93;;;8.73;;
42000;SDS011;27689;48.390;10.856;2023-02-28T06:59:27;14.00;;;9.55;;
42000;SDS011;27689;48.390;10.856;2023-02-28T07:02:11;11.65;;;8.75;;
42000;SDS011;27689;48.390;10.856;2023-02-28T07:04:54;9.23;;;7.38;;
42000;SDS011;27689;48.390;10.856;2023-02-28T07:07:39;12.65;;;8.73;;
42000;SDS011;27689;48.390;10.856;2023-02-28T07:10:27;13.00;;;8.55;;
42000;SDS011;27689;48.390;10.856;2023-02-28T07:13:11;13.18;;;9.32;;
42000;SDS011;27689;48.390;10.856;2023-02-28T07:15:56;13.38;;;9.48;;
42000;SDS011;27689;48.390;10.856;2023-02-28T07:18:41;13.77;;;8.68;;
42000;SDS011;27689;48.390;10.856;2023-02-28T07:21:25;14.18;;;9.57;;
42000;SDS011;27689;48.390;10.856;2023-02-28T07:24:09;11.20;;;8.40;;
42000;SDS011;27689;48.390;10.856;2023-02-28T07:26:54;13.30;;;8.82;;
42000;SDS011;27689;48.390;10.856;2023-02-28T07:29:38;11.18;;;8.65;;
42000;SDS011;27689;48.390;10.856;2023-02-28T07:32:22;12.65;;;8.82;;
42000;SDS011;27689;48.390;10.856;2023-02-28T07:35:06;12.40;;;8.95;;
42000;SDS011;27689;48.390;10.856;2023-02-28T07:37:50;11.98;;;8.68;;
42000;SDS011;27689;48.390;10.856;2023-02-28T07:40:34;12.40;;;8.52;;
42000;SDS011;27689;48.390;10.856;2023-02-28T07:43:19;13.35;;;9.55;;
42000;SDS011;27689;48.390;10.856;2023-02-28T07:46:10;13.00;;;9.43;;
42000;SDS011;27689;48.390;10.856;2023-02-28T07:48:56;14.07;;;9.82;;
42000;SDS011;27689;48.390;10.856;2023-02-28T07:51:43;13.20;;;9.00;;
42000;SDS011;27689;48.390;10.856;2023-02-28T07:54:27;13.13;;;8.85;;
42000;SDS011;27689;48.390;10.856;2023-02-28T07:57:11;13.40;;;10.63;;
42000;SDS011;27689;48.390;10.856;2023-02-28T07:59:55;12.25;;;9.52;;
42000;SDS011;27689;48.390;10.856;2023-02-28T08:02:39;9.57;;;7.85;;
42000;SDS011;27689;48.390;10.856;2023-02-28T08:05:23;13.95;;;10.05;;
42000;SDS011;27689;48.390;10.856;2023-02-28T08:08:07;21.08;;;10.88;;
42000;SDS011;27689;48.390;10.856;2023-02-28T08:10:51;13.73;;;9.88;;
42000;SDS011;27689;48.390;10.856;2023-02-28T08:13:35;13.35;;;10.57;;
42000;SDS011;27689;48.390;10.856;2023-02-28T08:16:19;15.25;;;10.88;;
42000;SDS011;27689;48.390;10.856;2023-02-28T08:19:05;14.02;;;10.63;;
42000;SDS011;27689;48.390;10.856;2023-02-28T08:21:49;15.82;;;10.65;;
42000;SDS011;27689;48.390;10.856;2023-02-28T08:24:33;11.32;;;8.07;;
42000;SDS011;27689;48.390;10.856;2023-02-28T08:27:17;16.25;;;11.05;;
42000;SDS011;27689;48.390;10.856;2023-02-28T08:30:01;15.77;;;10.48;;
42000;SDS011;27689;48.390;10.856;2023-02-28T08:32:45;18.42;;;11.90;;
42000;SDS011;27689;48.390;10.856;2023-02-28T08:35:29;16.67;;;11.25;;
42000;SDS011;27689;48.390;10.856;2023-02-28T08:38:13;15.23;;;10.68;;
42000;SDS011;27689;48.390;10.856;2023-02-28T08:40:58;17.23;;;11.82;;
42000;SDS011;27689;48.390;10.856;2023-02-28T08:43:44;16.77;;;11.23;;
42000;SDS011;27689;48.390;10.856;2023-02-28T08:46:27;17.25;;;12.93;;
42000;SDS011;27689;48.390;10.856;2023-02-28T08:49:12;16.88;;;12.07;;
42000;SDS011;27689;48.390;10.856;2023-02-28T08:51:56;17.27;;;12.45;;
42000;SDS011;27689;48.390;10.856;2023-02-28T08:57:24;15.60;;;10.15;;
42000;SDS011;27689;48.390;10.856;2023-02-28T09:00:10;15.80;;;11.20;;
42000;SDS011;27689;48.390;10.856;2023-02-28T09:02:57;15.95;;;12.10;;
42000;SDS011;27689;48.390;10.856;2023-02-28T09:05:41;18.08;;;12.32;;
42000;SDS011;27689;48.390;10.856;2023-02-28T09:08:25;18.42;;;11.98;;
42000;SDS011;27689;48.390;10.856;2023-02-28T09:11:11;15.73;;;10.93;;
42000;SDS011;27689;48.390;10.856;2023-02-28T09:16:39;20.00;;;15.02;;
42000;SDS011;27689;48.390;10.856;2023-02-28T09:19:23;18.95;;;13.18;;
42000;SDS011;27689;48.390;10.856;2023-02-28T09:22:07;16.35;;;12.18;;
42000;SDS011;27689;48.390;10.856;2023-02-28T09:24:51;14.57;;;11.68;;
42000;SDS011;27689;48.390;10.856;2023-02-28T09:27:35;21.85;;;12.82;;
42000;SDS011;27689;48.390;10.856;2023-02-28T09:30:19;20.75;;;14.40;;
42000;SDS011;27689;48.390;10.856;2023-02-28T09:33:03;20.13;;;14.23;;
42000;SDS011;27689;48.390;10.856;2023-02-28T09:35:48;19.73;;;15.23;;
42000;SDS011;27689;48.390;10.856;2023-02-28T09:38:33;18.73;;;13.75;;
42000;SDS011;27689;48.390;10.856;2023-02-28T09:41:18;15.05;;;12.57;;
42000;SDS011;27689;48.390;10.856;2023-02-28T09:44:04;15.90;;;12.48;;
42000;SDS011;27689;48.390;10.856;2023-02-28T09:46:54;15.18;;;11.75;;
42000;SDS011;27689;48.390;10.856;2023-02-28T09:53:03;15.98;;;11.88;;
42000;SDS011;27689;48.390;10.856;2023-02-28T09:56:04;16.30;;;12.38;;
42000;SDS011;27689;48.390;10.856;2023-02-28T09:59:01;15.05;;;11.05;;
42000;SDS011;27689;48.390;10.856;2023-02-28T10:04:47;16.63;;;11.13;;
42000;SDS011;27689;48.390;10.856;2023-02-28T10:10:35;16.88;;;12.27;;
42000;SDS011;27689;48.390;10.856;2023-02-28T10:13:41;16.83;;;12.23;;
42000;SDS011;27689;48.390;10.856;2023-02-28T10:16:45;15.02;;;11.05;;
42000;SDS011;27689;48.390;10.856;2023-02-28T10:19:58;13.32;;;10.88;;
42000;SDS011;27689;48.390;10.856;2023-02-28T10:22:57;16.15;;;11.55;;
42000;SDS011;27689;48.390;10.856;2023-02-28T10:25:41;15.77;;;11.43;;
42000;SDS011;27689;48.390;10.856;2023-02-28T10:28:31;15.73;;;10.82;;
42000;SDS011;27689;48.390;10.856;2023-02-28T10:31:17;17.05;;;12.38;;
42000;SDS011;27689;48.390;10.856;2023-02-28T10:34:03;14.48;;;11.10;;
42000;SDS011;27689;48.390;10.856;2023-02-28T10:36:48;18.92;;;13.80;;
42000;SDS011;27689;48.390;10.856;2023-02-28T10:39:35;14.70;;;10.98;;
42000;SDS011;27689;48.390;10.856;2023-02-28T10:42:22;18.15;;;12.15;;
42000;SDS011;27689;48.390;10.856;2023-02-28T10:45:11;13.50;;;10.55;;
42000;SDS011;27689;48.390;10.856;2023-02-28T10:56:26;13.85;;;11.00;;
42000;SDS011;27689;48.390;10.856;2023-02-28T10:59:27;13.57;;;10.20;;
42000;SDS011;27689;48.390;10.856;2023-02-28T11:05:35;17.27;;;11.48;;
42000;SDS011;27689;48.390;10.856;2023-02-28T11:08:20;13.07;;;10.30;;
42000;SDS011;27689;48.390;10.856;2023-02-28T11:11:04;14.88;;;12.02;;
42000;SDS011;27689;48.390;10.856;2023-02-28T11:13:53;16.27;;;11.43;;
42000;SDS011;27689;48.390;10.856;2023-02-28T11:16:40;20.73;;;13.65;;
42000;SDS011;27689;48.390;10.856;2023-02-28T11:22:10;23.63;;;15.82;;
42000;SDS011;27689;48.390;10.856;2023-02-28T11:24:55;22.58;;;14.57;;
42000;SDS011;27689;48.390;10.856;2023-02-28T11:27:47;14.43;;;12.00;;
42000;SDS011;27689;48.390;10.856;2023-02-28T11:36:34;18.10;;;13.23;;
42000;SDS011;27689;48.390;10.856;2023-02-28T11:39:17;15.68;;;11.75;;
42000;SDS011;27689;48.390;10.856;2023-02-28T11:44:59;18.40;;;13.93;;
42000;SDS011;27689;48.390;10.856;2023-02-28T11:50:52;17.05;;;13.02;;
42000;SDS011;27689;48.390;10.856;2023-02-28T11:56:41;23.13;;;14.75;;
42000;SDS011;27689;48.390;10.856;2023-02-28T11:59:41;15.10;;;10.85;;
42000;SDS011;27689;48.390;10.856;2023-02-28T12:05:44;19.10;;;12.40;;
42000;SDS011;27689;48.390;10.856;2023-02-28T12:17:47;14.55;;;11.48;;
42000;SDS011;27689;48.390;10.856;2023-02-28T12:20:57;22.08;;;17.50;;
42000;SDS011;27689;48.390;10.856;2023-02-28T12:26:56;14.30;;;12.65;;
42000;SDS011;27689;48.390;10.856;2023-02-28T12:30:04;17.15;;;14.20;;
42000;SDS011;27689;48.390;10.856;2023-02-28T12:33:05;18.13;;;12.55;;
42000;SDS011;27689;48.390;10.856;2023-02-28T12:35:57;13.18;;;10.80;;
42000;SDS011;27689;48.390;10.856;2023-02-28T12:38:45;19.05;;;11.60;;
42000;SDS011;27689;48.390;10.856;2023-02-28T12:41:34;29.17;;;11.85;;
42000;SDS011;27689;48.390;10.856;2023-02-28T12:44:34;13.85;;;11.32;;
42000;SDS011;27689;48.390;10.856;2023-02-28T12:47:24;16.00;;;11.38;;
42000;SDS011;27689;48.390;10.856;2023-02-28T12:50:09;14.23;;;10.80;;
42000;SDS011;27689;48.390;10.856;2023-02-28T12:52:59;15.88;;;11.65;;
42000;SDS011;27689;48.390;10.856;2023-02-28T12:59:37;15.63;;;11.15;;
42000;SDS011;27689;48.390;10.856;2023-02-28T13:02:40;13.07;;;10.75;;
42000;SDS011;27689;48.390;10.856;2023-02-28T13:11:53;13.18;;;10.07;;
42000;SDS011;27689;48.390;10.856;2023-02-28T13:14:39;16.15;;;10.25;;
42000;SDS011;27689;48.390;10.856;2023-02-28T13:17:24;13.18;;;10.48;;
42000;SDS011;27689;48.390;10.856;2023-02-28T13:20:17;12.90;;;9.85;;
42000;SDS011;27689;48.390;10.856;2023-02-28T13:23:03;11.65;;;9.73;;
42000;SDS011;27689;48.390;10.856;2023-02-28T13:25:50;12.27;;;9.63;;
42000;SDS011;27689;48.390;10.856;2023-02-28T13:31:31;13.70;;;10.63;;
42000;SDS011;27689;48.390;10.856;2023-02-28T13:34:17;14.57;;;9.60;;
42000;SDS011;27689;48.390;10.856;2023-02-28T13:43:07;13.07;;;10.65;;
42000;SDS011;27689;48.390;10.856;2023-02-28T13:46:06;12.60;;;9.85;;
42000;SDS011;27689;48.390;10.856;2023-02-28T13:48:54;13.52;;;10.18;;
42000;SDS011;27689;48.390;10.856;2023-02-28T13:51:39;12.85;;;10.27;;
42000;SDS011;27689;48.390;10.856;2023-02-28T14:00:28;12.95;;;9.75;;
42000;SDS011;27689;48.390;10.856;2023-02-28T14:06:14;18.98;;;10.95;;
42000;SDS011;27689;48.390;10.856;2023-02-28T14:18:28;13.68;;;9.95;;
42000;SDS011;27689;48.390;10.856;2023-02-28T14:24:02;16.50;;;9.80;;
42000;SDS011;27689;48.390;10.856;2023-02-28T14:36:18;11.77;;;9.05;;
42000;SDS011;27689;48.390;10.856;2023-02-28T14:39:13;14.05;;;9.77;;
42000;SDS011;27689;48.390;10.856;2023-02-28T14:42:00;10.30;;;8.38;;
42000;SDS011;27689;48.390;10.856;2023-02-28T14:44:53;11.48;;;9.10;;
42000;SDS011;27689;48.390;10.856;2023-02-28T14:47:38;12.20;;;9.80;;
42000;SDS011;27689;48.390;10.856;2023-02-28T14:50:27;11.93;;;9.25;;
42000;SDS011;27689;48.390;10.856;2023-02-28T14:53:19;13.93;;;9.65;;
42000;SDS011;27689;48.390;10.856;2023-02-28T14:56:05;11.82;;;8.85;;
42000;SDS011;27689;48.390;10.856;2023-02-28T14:58:51;13.02;;;9.32;;
42000;SDS011;27689;48.390;10.856;2023-02-28T15:01:37;13.82;;;9.18;;
42000;SDS011;27689;48.390;10.856;2023-02-28T15:04:24;12.05;;;9.23;;
42000;SDS011;27689;48.390;10.856;2023-02-28T15:07:12;10.43;;;9.07;;
42000;SDS011;27689;48.390;10.856;2023-02-28T15:13:10;13.90;;;10.23;;
42000;SDS011;27689;48.390;10.856;2023-02-28T15:16:03;13.95;;;9.60;;
42000;SDS011;27689;48.390;10.856;2023-02-28T15:18:59;12.38;;;9.85;;
42000;SDS011;27689;48.390;10.856;2023-02-28T15:21:50;15.63;;;10.73;;
42000;SDS011;27689;48.390;10.856;2023-02-28T15:24:42;14.43;;;9.82;;
42000;SDS011;27689;48.390;10.856;2023-02-28T15:27:32;14.32;;;10.13;;
42000;SDS011;27689;48.390;10.856;2023-02-28T15:36:15;11.52;;;8.75;;
42000;SDS011;27689;48.390;10.856;2023-02-28T15:39:18;15.13;;;10.25;;
42000;SDS011;27689;48.390;10.856;2023-02-28T15:42:23;16.48;;;9.77;;
42000;SDS011;27689;48.390;10.856;2023-02-28T15:51:24;14.30;;;11.85;;
42000;SDS011;27689;48.390;10.856;2023-02-28T15:54:31;14.93;;;11.90;;
42000;SDS011;27689;48.390;10.856;2023-02-28T15:57:22;15.05;;;10.82;;
42000;SDS011;27689;48.390;10.856;2023-02-28T16:00:11;18.02;;;11.93;;
42000;SDS011;27689;48.390;10.856;2023-02-28T16:02:58;16.77;;;11.32;;
42000;SDS011;27689;48.390;10.856;2023-02-28T16:05:43;13.38;;;10.68;;
42000;SDS011;27689;48.390;10.856;2023-02-28T16:08:27;15.50;;;11.95;;
42000;SDS011;27689;48.390;10.856;2023-02-28T16:11:11;14.30;;;11.03;;
42000;SDS011;27689;48.390;10.856;2023-02-28T16:13:56;15.80;;;11.55;;
42000;SDS011;27689;48.390;10.856;2023-02-28T16:16:44;15.98;;;12.27;;
42000;SDS011;27689;48.390;10.856;2023-02-28T16:19:30;23.08;;;16.90;;
42000;SDS011;27689;48.390;10.856;2023-02-28T16:22:15;19.27;;;14.50;;
42000;SDS011;27689;48.390;10.856;2023-02-28T16:24:59;17.33;;;13.00;;
42000;SDS011;27689;48.390;10.856;2023-02-28T16:27:43;17.17;;;13.07;;
42000;SDS011;27689;48.390;10.856;2023-02-28T16:30:32;17.40;;;12.68;;
42000;SDS011;27689;48.390;10.856;2023-02-28T16:33:16;14.98;;;12.18;;
42000;SDS011;27689;48.390;10.856;2023-02-28T16:36:00;14.03;;;10.87;;
42000;SDS011;27689;48.390;10.856;2023-02-28T16:38:44;13.80;;;10.23;;
42000;SDS011;27689;48.390;10.856;2023-02-28T16:41:29;19.15;;;12.38;;
42000;SDS011;27689;48.390;10.856;2023-02-28T16:44:18;16.42;;;12.05;;
42000;SDS011;27689;48.390;10.856;2023-02-28T16:47:10;16.08;;;11.27;;
42000;SDS011;27689;48.390;10.856;2023-02-28T16:49:55;16.90;;;11.35;;
42000;SDS011;27689;48.390;10.856;2023-02-28T16:52:39;14.75;;;12.10;;
42000;SDS011;27689;48.390;10.856;2023-02-28T16:55:24;14.30;;;11.23;;
42000;SDS011;27689;48.390;10.856;2023-02-28T16:58:13;15.60;;;11.93;;
42000;SDS011;27689;48.390;10.856;2023-02-28T17:00:59;13.50;;;11.02;;
42000;SDS011;27689;48.390;10.856;2023-02-28T17:03:43;17.03;;;11.17;;
42000;SDS011;27689;48.390;10.856;2023-02-28T17:06:28;17.98;;;13.18;;
42000;SDS011;27689;48.390;10.856;2023-02-28T17:09:17;15.05;;;11.85;;
42000;SDS011;27689;48.390;10.856;2023-02-28T17:12:04;18.65;;;10.93;;
42000;SDS011;27689;48.390;10.856;2023-02-28T17:14:48;26.90;;;18.10;;
42000;SDS011;27689;48.390;10.856;2023-02-28T17:17:32;18.83;;;13.43;;
42000;SDS011;27689;48.390;10.856;2023-02-28T17:20:20;17.30;;;12.30;;
42000;SDS011;27689;48.390;10.856;2023-02-28T17:23:09;16.02;;;11.55;;
42000;SDS011;27689;48.390;10.856;2023-02-28T17:25:53;14.35;;;10.45;;
42000;SDS011;27689;48.390;10.856;2023-02-28T17:28:37;14.23;;;10.55;;
42000;SDS011;27689;48.390;10.856;2023-02-28T17:31:22;16.23;;;11.70;;
42000;SDS011;27689;48.390;10.856;2023-02-28T17:34:07;17.63;;;11.88;;
42000;SDS011;27689;48.390;10.856;2023-02-28T17:36:51;17.92;;;11.60;;
42000;SDS011;27689;48.390;10.856;2023-02-28T17:39:35;15.45;;;11.63;;
42000;SDS011;27689;48.390;10.856;2023-02-28T17:42:20;16.90;;;11.85;;
42000;SDS011;27689;48.390;10.856;2023-02-28T17:45:03;18.10;;;12.47;;
42000;SDS011;27689;48.390;10.856;2023-02-28T17:47:48;22.50;;;15.95;;
42000;SDS011;27689;48.390;10.856;2023-02-28T17:50:36;68.80;;;34.20;;
42000;SDS011;27689;48.390;10.856;2023-02-28T17:53:20;65.82;;;32.10;;
42000;SDS011;27689;48.390;10.856;2023-02-28T17:56:13;58.92;;;30.23;;
42000;SDS011;27689;48.390;10.856;2023-02-28T17:58:59;48.15;;;27.45;;
42000;SDS011;27689;48.390;10.856;2023-02-28T18:01:46;38.15;;;25.17;;
42000;SDS011;27689;48.390;10.856;2023-02-28T18:04:30;31.33;;;22.10;;
42000;SDS011;27689;48.390;10.856;2023-02-28T18:07:14;34.05;;;22.95;;
42000;SDS011;27689;48.390;10.856;2023-02-28T18:09:59;29.65;;;20.52;;
42000;SDS011;27689;48.390;10.856;2023-02-28T18:12:42;23.67;;;16.58;;
42000;SDS011;27689;48.390;10.856;2023-02-28T18:15:26;23.98;;;15.38;;
42000;SDS011;27689;48.390;10.856;2023-02-28T18:18:10;20.13;;;14.27;;
42000;SDS011;27689;48.390;10.856;2023-02-28T18:20:54;22.58;;;16.08;;
42000;SDS011;27689;48.390;10.856;2023-02-28T18:23:39;21.75;;;15.65;;
42000;SDS011;27689;48.390;10.856;2023-02-28T18:26:30;23.55;;;16.17;;
42000;SDS011;27689;48.390;10.856;2023-02-28T18:29:19;27.60;;;19.70;;
42000;SDS011;27689;48.390;10.856;2023-02-28T18:32:08;19.45;;;14.18;;
42000;SDS011;27689;48.390;10.856;2023-02-28T18:34:52;17.48;;;12.80;;
42000;SDS011;27689;48.390;10.856;2023-02-28T18:37:36;17.85;;;13.73;;
42000;SDS011;27689;48.390;10.856;2023-02-28T18:40:21;18.90;;;13.73;;
42000;SDS011;27689;48.390;10.856;2023-02-28T18:43:05;18.80;;;13.57;;
42000;SDS011;27689;48.390;10.856;2023-02-28T18:48:33;19.15;;;13.27;;
42000;SDS011;27689;48.390;10.856;2023-02-28T18:51:19;17.67;;;12.23;;
42000;SDS011;27689;48.390;10.856;2023-02-28T18:54:04;18.10;;;13.57;;
42000;SDS011;27689;48.390;10.856;2023-02-28T18:56:48;16.80;;;12.98;;
42000;SDS011;27689;48.390;10.856;2023-02-28T18:59:33;18.88;;;12.82;;
42000;SDS011;27689;48.390;10.856;2023-02-28T19:02:17;19.63;;;13.13;;
42000;SDS011;27689;48.390;10.856;2023-02-28T19:05:01;19.15;;;12.70;;
42000;SDS011;27689;48.390;10.856;2023-02-28T19:07:45;21.88;;;13.30;;
42000;SDS011;27689;48.390;10.856;2023-02-28T19:10:30;18.13;;;12.02;;
42000;SDS011;27689;48.390;10.856;2023-02-28T19:13:14;22.35;;;12.90;;
42000;SDS011;27689;48.390;10.856;2023-02-28T19:16:01;18.75;;;12.57;;
42000;SDS011;27689;48.390;10.856;2023-02-28T19:18:46;20.67;;;12.57;;